Clarion, Iowa
Current Conditions -  °F | °C
As of 3:35 PM on Wednesday 26 Nov 2014 (Local Time) from KCAV Reporting Station
Unknown Precip Unknown Precip  
Wind Chill: 10°   Ceiling: Unl
Heat Index: 25°   Visibility: 1mi
Dew Point: 25°   Wind: 21mph
Humidity: 100%   Direction: 30°NNE
Pressure: 30.16"   Gusts: 26mph
Location:  42.73°N, 93.73°W
Report Text: KCAV 262135Z AUTO 03018G23KT 1SM +UP SCT008 M04/M04 A3016 RMK AO2
Loading
Personal Weather Stations






























Interactive Weather Map New forecast layout! Learn more

10-Day Weather Forecast

Advertisements
Track Severe Weather on mobile